Terminal Aerodrome Forecast
Issued by NWS

Home | Current Version | Previous Version | Text Only | Print | Product List | Glossary On
Versions: 1 2 3 4 5 6 7 8 9 10 11 12 13 14
994
FTUS45 KTFX 231720
TAFLWT
TAF
KLWT 231720Z 2318/2418 30015G23KT P6SM SCT150
     FM232300 25006G17KT P6SM VCTS SCT070CB BKN150
     FM240300 28008KT P6SM BKN070
     FM241200 21004KT P6SM SKC=

USA.gov is the U.S. government's official web portal to all federal, state and local government web resources and services.